Time;durP1;ratioP1;P1;durP2;ratioP2;P2;SDS_P1;SDS_P2;PMS_P1;PMS_P2;Temp;Humidity;BMP_temperature;BMP_pressure;BME280_temperature;BME280_humidity;BME280_pressure;Samples;Min_cycle;Max_cycle;Signal;HPM_P1;HPM_P2
2021/12/24 00:01:11;;;;;;;;;;;4.40;92.70;;;;;;5041126;28;19924;-77
2021/12/24 00:03:37;;;;;;;;;;;4.40;92.80;;;;;;5044287;28;19947;-77
2021/12/24 00:06:05;;;;;;;;;;;4.50;92.70;;;;;;5047188;28;19978;-76
2021/12/24 00:08:32;;;;;;;;;;;4.40;92.70;;;;;;5043980;28;19997;-77
2021/12/24 00:11:00;;;;;;;;;;;4.50;92.80;;;;;;5044612;28;20124;-75
2021/12/24 00:13:27;;;;;;;;;;;4.50;92.80;;;;;;5040874;28;19925;-76
2021/12/24 00:16:04;;;;;;;;;;;4.50;92.80;;;;;;5040430;28;19925;-77
2021/12/24 00:18:39;;;;;;;;;;;4.50;92.80;;;;;;5037904;28;19968;-77
2021/12/24 00:35:13;;;;;;;;;;;4.60;92.70;;;;;;5043405;28;19930;-76
2021/12/24 00:37:40;;;;;;;;;;;4.60;92.70;;;;;;5033294;28;19928;-76
2021/12/24 00:40:13;;;;;;;;;;;4.60;92.80;;;;;;5043832;28;19933;-77
2021/12/24 00:42:44;;;;;;;;;;;4.60;92.80;;;;;;5043696;28;19925;-76
2021/12/24 00:45:11;;;;;;;;;;;4.60;92.80;;;;;;5040666;28;19925;-75
2021/12/24 00:47:39;;;;;;;;;;;4.60;92.90;;;;;;5040993;28;19970;-77
2021/12/24 00:50:09;;;;;;;;;;;4.60;92.90;;;;;;5049365;28;20375;-77
2021/12/24 00:52:47;;;;;;;;;;;4.60;92.90;;;;;;5042235;28;19974;-77
2021/12/24 00:55:14;;;;;;;;;;;4.70;93.00;;;;;;5039417;28;19925;-77
2021/12/24 00:57:41;;;;;;;;;;;4.70;92.90;;;;;;5042520;28;19966;-75
2021/12/24 01:00:11;;;;;;;;;;;4.70;92.90;;;;;;5039497;28;19928;-76
2021/12/24 01:02:39;;;;;;;;;;;4.70;92.90;;;;;;5040171;28;19924;-77
2021/12/24 01:05:06;;;;;;;;;;;4.70;93.00;;;;;;5041540;28;19951;-77
2021/12/24 01:07:33;;;;;;;;;;;4.70;93.00;;;;;;5040829;28;19924;-76
2021/12/24 01:09:59;;;;;;;;;;;4.70;92.80;;;;;;5042632;28;19932;-77
2021/12/24 01:12:26;;;;;;;;;;;4.80;92.80;;;;;;5048475;28;19955;-76
2021/12/24 01:14:53;;;;;;;;;;;4.80;92.80;;;;;;5038355;28;19928;-77
2021/12/24 01:17:30;;;;;;;;;;;4.80;92.80;;;;;;5035016;28;20641;-76
2021/12/24 01:20:04;;;;;;;;;;;4.80;92.90;;;;;;5039208;28;19931;-77
2021/12/24 01:25:27;;;;;;;;;;;4.80;93.00;;;;;;5025703;28;19923;-77
2021/12/24 01:28:12;;;;;;;;;;;4.80;93.10;;;;;;5034119;28;19928;-76
2021/12/24 01:39:03;;;;;;;;;;;4.90;93.20;;;;;;5038118;28;20435;-77
2021/12/24 01:44:13;;;;;;;;;;;4.90;93.20;;;;;;5040170;28;19923;-76
2021/12/24 01:46:40;;;;;;;;;;;4.90;93.20;;;;;;5039618;28;19927;-77
2021/12/24 01:49:07;;;;;;;;;;;5.00;93.20;;;;;;5043363;28;20486;-76
2021/12/24 01:51:35;;;;;;;;;;;5.00;93.30;;;;;;5042554;28;19929;-76
2021/12/24 01:54:01;;;;;;;;;;;5.00;93.30;;;;;;5038042;28;20384;-76
2021/12/24 01:56:28;;;;;;;;;;;5.00;93.20;;;;;;5039966;28;19936;-77
2021/12/24 01:58:54;;;;;;;;;;;5.00;93.10;;;;;;5036811;28;19920;-76
2021/12/24 02:01:25;;;;;;;;;;;5.00;93.10;;;;;;5037233;28;20018;-76
2021/12/24 02:03:52;;;;;;;;;;;5.00;93.20;;;;;;5041129;28;20011;-76
2021/12/24 02:06:18;;;;;;;;;;;5.00;93.20;;;;;;5034667;28;19928;-76
2021/12/24 02:08:46;;;;;;;;;;;5.00;93.10;;;;;;5042543;28;19983;-76
2021/12/24 02:11:13;;;;;;;;;;;5.10;93.10;;;;;;5037947;28;19928;-77
2021/12/24 02:13:40;;;;;;;;;;;5.10;93.10;;;;;;5037678;28;19920;-77
2021/12/24 02:16:15;;;;;;;;;;;5.10;93.10;;;;;;5038000;28;19935;-77
2021/12/24 02:29:39;;;;;;;;;;;5.10;93.10;;;;;;5039920;28;19935;-76
2021/12/24 02:32:06;;;;;;;;;;;5.20;93.20;;;;;;5040201;28;19929;-77
2021/12/24 02:34:33;;;;;;;;;;;5.20;93.20;;;;;;5036445;28;20408;-78
2021/12/24 02:37:01;;;;;;;;;;;5.20;93.20;;;;;;5035864;28;19928;-75
2021/12/24 02:39:28;;;;;;;;;;;5.20;93.30;;;;;;5034361;28;19940;-76
2021/12/24 02:41:57;;;;;;;;;;;5.30;93.30;;;;;;5041791;28;19935;-78
2021/12/24 02:44:23;;;;;;;;;;;5.30;93.30;;;;;;5030411;28;19929;-77
2021/12/24 02:47:09;;;;;;;;;;;5.30;93.10;;;;;;5036806;28;20467;-77
2021/12/24 02:55:07;;;;;;;;;;;5.30;93.20;;;;;;5044576;28;20395;-77
2021/12/24 02:57:35;;;;;;;;;;;5.30;93.20;;;;;;5044845;28;20343;-77
2021/12/24 03:00:06;;;;;;;;;;;5.30;93.20;;;;;;5041138;28;19925;-77
2021/12/24 03:02:33;;;;;;;;;;;5.30;93.10;;;;;;5038349;28;19978;-76
2021/12/24 03:05:01;;;;;;;;;;;5.40;93.20;;;;;;5044755;28;20647;-77
2021/12/24 03:07:28;;;;;;;;;;;5.40;93.20;;;;;;5042813;28;19990;-77
2021/12/24 03:09:55;;;;;;;;;;;5.40;93.20;;;;;;5042612;28;19971;-76
2021/12/24 03:12:22;;;;;;;;;;;5.40;93.20;;;;;;5043847;28;20027;-76
2021/12/24 03:14:49;;;;;;;;;;;5.40;93.20;;;;;;5045009;28;20388;-76
2021/12/24 03:17:19;;;;;;;;;;;5.40;93.20;;;;;;5042291;28;20707;-76
2021/12/24 03:19:46;;;;;;;;;;;5.40;93.20;;;;;;5041749;28;21543;-76
2021/12/24 03:22:27;;;;;;;;;;;5.50;93.20;;;;;;5041741;28;19925;-76
2021/12/24 03:24:55;;;;;;;;;;;5.50;93.20;;;;;;5039435;28;20019;-78
2021/12/24 03:27:22;;;;;;;;;;;5.50;93.20;;;;;;5041370;28;20004;-76
2021/12/24 03:29:48;;;;;;;;;;;5.50;93.20;;;;;;5042408;28;19964;-77
2021/12/24 03:32:15;;;;;;;;;;;5.50;93.20;;;;;;5044274;28;19990;-77
2021/12/24 03:34:42;;;;;;;;;;;5.50;93.20;;;;;;5042953;28;19925;-77
2021/12/24 03:37:08;;;;;;;;;;;5.60;93.20;;;;;;5039592;28;20454;-77
2021/12/24 03:39:36;;;;;;;;;;;5.60;93.20;;;;;;5045575;28;20422;-77
2021/12/24 03:42:04;;;;;;;;;;;5.60;93.10;;;;;;5035397;28;19929;-77
2021/12/24 03:44:36;;;;;;;;;;;5.60;93.20;;;;;;5041228;28;19948;-77
2021/12/24 03:47:08;;;;;;;;;;;5.60;93.20;;;;;;5043469;28;20023;-78
2021/12/24 03:49:38;;;;;;;;;;;5.60;93.20;;;;;;5043674;28;19931;-77
2021/12/24 03:52:18;;;;;;;;;;;5.60;93.30;;;;;;5038730;28;20459;-76
2021/12/24 03:54:58;;;;;;;;;;;5.60;93.20;;;;;;5037435;28;19924;-76
2021/12/24 03:57:28;;;;;;;;;;;5.60;93.20;;;;;;5041795;28;19920;-77
2021/12/24 03:59:55;;;;;;;;;;;5.70;93.30;;;;;;5042775;28;19924;-77
2021/12/24 04:02:22;;;;;;;;;;;5.70;93.30;;;;;;5041924;28;20624;-76
2021/12/24 04:04:48;;;;;;;;;;;5.70;93.30;;;;;;5041886;28;19943;-77
2021/12/24 04:07:15;;;;;;;;;;;5.70;93.30;;;;;;5036702;28;19920;-77
2021/12/24 04:09:49;;;;;;;;;;;5.80;93.40;;;;;;5042741;28;19925;-77
2021/12/24 04:12:16;;;;;;;;;;;5.80;93.30;;;;;;5043982;28;19979;-77
2021/12/24 04:14:43;;;;;;;;;;;5.80;93.40;;;;;;5041794;28;19925;-76
2021/12/24 04:17:10;;;;;;;;;;;5.80;93.40;;;;;;5043952;28;19932;-77
2021/12/24 04:24:51;;;;;;;;;;;5.80;93.40;;;;;;5044103;28;19924;-76
2021/12/24 04:25:09;;;;;;;;;;;5.80;93.40;;;;;;5041722;28;20724;-76
2021/12/24 04:27:36;;;;;;;;;;;5.80;93.40;;;;;;5041235;28;19925;-77
2021/12/24 04:30:09;;;;;;;;;;;5.80;93.40;;;;;;5045972;28;19925;-78
2021/12/24 04:32:50;;;;;;;;;;;5.80;93.50;;;;;;5044455;28;19931;-78
2021/12/24 04:35:31;;;;;;;;;;;5.90;93.50;;;;;;5042015;28;19925;-77
2021/12/24 04:38:11;;;;;;;;;;;5.90;93.50;;;;;;5039668;28;20427;-77
2021/12/24 04:51:39;;;;;;;;;;;5.90;93.50;;;;;;5040103;28;19931;-76
2021/12/24 05:02:36;;;;;;;;;;;5.90;93.50;;;;;;5040124;28;19927;-78
2021/12/24 05:05:10;;;;;;;;;;;5.90;93.50;;;;;;5043571;28;20043;-80
2021/12/24 05:10:17;;;;;;;;;;;6.00;93.60;;;;;;5034712;28;19920;-77
2021/12/24 05:12:44;;;;;;;;;;;6.00;93.80;;;;;;5042550;28;19924;-77
2021/12/24 05:15:11;;;;;;;;;;;6.00;93.50;;;;;;5038200;28;20362;-77
2021/12/24 05:17:53;;;;;;;;;;;6.00;93.50;;;;;;5043323;28;19967;-77
2021/12/24 05:23:04;;;;;;;;;;;6.00;93.40;;;;;;5036535;28;19978;-77
2021/12/24 05:25:30;;;;;;;;;;;6.00;93.40;;;;;;5043844;28;19931;-77
2021/12/24 05:27:57;;;;;;;;;;;6.00;93.40;;;;;;5041815;28;20341;-77
2021/12/24 05:30:24;;;;;;;;;;;6.10;93.40;;;;;;5040454;28;19932;-77
2021/12/24 05:32:52;;;;;;;;;;;6.10;93.40;;;;;;5042920;28;19980;-76
2021/12/24 05:35:18;;;;;;;;;;;6.00;93.30;;;;;;5042888;28;19982;-77
2021/12/24 05:37:45;;;;;;;;;;;6.10;93.40;;;;;;5036200;28;19971;-77
2021/12/24 05:40:11;;;;;;;;;;;6.10;93.40;;;;;;5049907;28;19928;-76
2021/12/24 05:42:38;;;;;;;;;;;6.10;93.40;;;;;;5043638;28;19925;-77
2021/12/24 05:45:07;;;;;;;;;;;6.10;93.40;;;;;;5040747;28;19924;-78
2021/12/24 05:47:33;;;;;;;;;;;6.10;93.40;;;;;;5042213;28;19924;-76
2021/12/24 05:50:01;;;;;;;;;;;6.10;93.40;;;;;;5047835;28;19939;-77
2021/12/24 05:52:28;;;;;;;;;;;6.10;93.40;;;;;;5037009;28;19955;-77
2021/12/24 05:54:54;;;;;;;;;;;6.10;93.40;;;;;;5042012;28;20396;-77
2021/12/24 05:57:21;;;;;;;;;;;6.10;93.40;;;;;;5040155;28;19925;-77
2021/12/24 05:59:48;;;;;;;;;;;6.10;93.40;;;;;;5040498;28;19970;-77
2021/12/24 06:02:14;;;;;;;;;;;6.20;93.40;;;;;;5040416;28;19925;-77
2021/12/24 06:04:41;;;;;;;;;;;6.20;93.50;;;;;;5040028;28;19925;-77
2021/12/24 06:07:09;;;;;;;;;;;6.20;93.50;;;;;;5040824;28;19932;-76
2021/12/24 06:09:35;;;;;;;;;;;6.20;93.50;;;;;;5042467;28;19970;-77
2021/12/24 06:12:02;;;;;;;;;;;6.20;93.40;;;;;;5044791;28;20482;-77
2021/12/24 06:14:28;;;;;;;;;;;6.20;93.40;;;;;;5040409;28;19940;-77
2021/12/24 06:17:01;;;;;;;;;;;6.20;93.40;;;;;;5039084;28;19928;-77
2021/12/24 06:19:28;;;;;;;;;;;6.20;93.50;;;;;;5039035;28;20475;-77
2021/12/24 06:21:55;;;;;;;;;;;6.20;93.50;;;;;;5040944;28;19928;-77
2021/12/24 06:24:23;;;;;;;;;;;6.20;93.50;;;;;;5040057;28;19933;-77
2021/12/24 06:26:50;;;;;;;;;;;6.20;93.60;;;;;;5036231;28;20350;-77
2021/12/24 06:29:16;;;;;;;;;;;6.20;93.60;;;;;;5043026;28;19924;-76
2021/12/24 06:31:43;;;;;;;;;;;6.20;93.60;;;;;;5040098;28;19929;-77
2021/12/24 06:34:10;;;;;;;;;;;6.30;93.60;;;;;;5043594;28;19951;-76
2021/12/24 06:36:40;;;;;;;;;;;6.30;93.60;;;;;;5042419;28;19929;-76
2021/12/24 06:39:07;;;;;;;;;;;6.30;93.60;;;;;;5044562;28;19924;-77
2021/12/24 06:41:36;;;;;;;;;;;6.30;93.60;;;;;;5041485;28;20411;-77
2021/12/24 06:44:04;;;;;;;;;;;6.30;93.60;;;;;;5040045;28;19928;-77
2021/12/24 06:46:30;;;;;;;;;;;6.30;93.50;;;;;;5035471;28;19924;-76
2021/12/24 06:48:57;;;;;;;;;;;6.30;93.50;;;;;;5046592;28;20857;-77
2021/12/24 06:51:24;;;;;;;;;;;6.30;93.50;;;;;;5041630;28;19929;-77
2021/12/24 06:53:50;;;;;;;;;;;6.30;93.50;;;;;;5045358;28;19920;-77
2021/12/24 06:56:17;;;;;;;;;;;6.30;93.50;;;;;;5045603;28;19920;-77
2021/12/24 06:58:45;;;;;;;;;;;6.40;93.50;;;;;;5045103;28;20730;-76
2021/12/24 07:01:11;;;;;;;;;;;6.40;93.50;;;;;;5040568;28;20072;-76
2021/12/24 07:03:38;;;;;;;;;;;6.40;93.50;;;;;;5045946;28;19924;-77
2021/12/24 07:06:05;;;;;;;;;;;6.40;93.50;;;;;;5048292;28;20047;-76
2021/12/24 07:08:32;;;;;;;;;;;6.40;93.50;;;;;;5042350;28;20392;-77
2021/12/24 07:10:59;;;;;;;;;;;6.40;93.50;;;;;;5045840;28;20453;-76
2021/12/24 07:13:25;;;;;;;;;;;6.40;93.50;;;;;;5043378;28;20706;-78
2021/12/24 07:15:53;;;;;;;;;;;6.40;93.50;;;;;;5043233;28;19924;-78
2021/12/24 07:18:20;;;;;;;;;;;6.40;93.50;;;;;;5042484;28;19921;-78
2021/12/24 07:20:47;;;;;;;;;;;6.40;93.50;;;;;;5038071;28;19932;-77
2021/12/24 07:23:13;;;;;;;;;;;6.40;93.40;;;;;;5042926;28;19929;-77
2021/12/24 07:25:40;;;;;;;;;;;6.40;93.50;;;;;;5042790;28;19931;-78
2021/12/24 07:28:07;;;;;;;;;;;6.40;93.50;;;;;;5042386;28;19928;-77
2021/12/24 07:30:33;;;;;;;;;;;6.40;93.50;;;;;;5042142;28;20580;-75
2021/12/24 07:33:01;;;;;;;;;;;6.40;93.50;;;;;;5035599;28;19932;-76
2021/12/24 07:35:28;;;;;;;;;;;6.40;93.50;;;;;;5034516;28;19971;-77
2021/12/24 07:37:54;;;;;;;;;;;6.40;93.40;;;;;;5039749;28;19951;-77
2021/12/24 07:40:24;;;;;;;;;;;6.40;93.70;;;;;;5038607;28;19928;-77
2021/12/24 07:42:51;;;;;;;;;;;6.50;93.40;;;;;;5042715;28;19932;-75
2021/12/24 07:45:18;;;;;;;;;;;6.40;93.40;;;;;;5029950;28;19928;-77
2021/12/24 07:47:54;;;;;;;;;;;6.40;93.40;;;;;;5042426;28;19928;-75
2021/12/24 07:53:03;;;;;;;;;;;6.50;93.50;;;;;;5032406;28;20070;-77
2021/12/24 07:55:30;;;;;;;;;;;6.50;93.50;;;;;;5035705;28;19925;-76
2021/12/24 07:57:57;;;;;;;;;;;6.50;93.50;;;;;;5031909;28;20507;-75
2021/12/24 08:00:26;;;;;;;;;;;6.50;93.50;;;;;;5038111;28;19986;-76
2021/12/24 08:02:53;;;;;;;;;;;6.50;93.50;;;;;;5041137;28;19994;-77
2021/12/24 08:05:22;;;;;;;;;;;6.50;93.50;;;;;;5040641;28;19932;-74
2021/12/24 08:07:51;;;;;;;;;;;6.50;93.50;;;;;;5040708;28;19921;-76
2021/12/24 08:10:18;;;;;;;;;;;6.50;93.50;;;;;;5041978;28;20359;-75
2021/12/24 08:12:44;;;;;;;;;;;6.50;93.50;;;;;;5046891;28;19936;-75
2021/12/24 08:15:11;;;;;;;;;;;6.50;93.50;;;;;;5040620;28;20734;-75
2021/12/24 08:17:37;;;;;;;;;;;6.50;93.50;;;;;;5037951;28;20695;-74
2021/12/24 08:20:04;;;;;;;;;;;6.60;93.50;;;;;;5044985;28;19931;-74
2021/12/24 08:22:31;;;;;;;;;;;6.50;93.40;;;;;;5042262;28;19970;-72
2021/12/24 08:25:00;;;;;;;;;;;6.60;93.50;;;;;;5037507;28;20317;-74
2021/12/24 08:27:26;;;;;;;;;;;6.60;93.50;;;;;;5031332;28;21012;-75
2021/12/24 08:29:53;;;;;;;;;;;6.60;93.50;;;;;;5033548;28;19935;-75
2021/12/24 08:32:20;;;;;;;;;;;6.60;93.50;;;;;;5032379;28;19935;-75
2021/12/24 08:34:47;;;;;;;;;;;6.60;93.50;;;;;;5032943;28;19968;-72
2021/12/24 08:37:13;;;;;;;;;;;6.60;93.50;;;;;;5032156;28;19925;-74
2021/12/24 08:39:40;;;;;;;;;;;6.60;93.50;;;;;;5034560;28;19929;-74
2021/12/24 08:42:08;;;;;;;;;;;6.60;93.50;;;;;;5037551;28;20315;-73
2021/12/24 08:44:36;;;;;;;;;;;6.60;93.50;;;;;;5043478;28;19924;-73
2021/12/24 08:47:04;;;;;;;;;;;6.60;93.50;;;;;;5038951;28;19928;-74
2021/12/24 08:49:31;;;;;;;;;;;6.60;93.50;;;;;;5044755;28;20028;-72
2021/12/24 08:51:57;;;;;;;;;;;6.60;93.50;;;;;;5043000;28;19924;-74
2021/12/24 08:54:24;;;;;;;;;;;6.60;93.50;;;;;;5043122;28;19951;-74
2021/12/24 08:56:51;;;;;;;;;;;6.60;93.50;;;;;;5041978;28;19925;-75
2021/12/24 08:59:19;;;;;;;;;;;6.60;93.40;;;;;;5047399;28;19925;-74
2021/12/24 09:01:45;;;;;;;;;;;6.60;93.50;;;;;;5039272;28;19925;-74
2021/12/24 09:04:12;;;;;;;;;;;6.70;93.50;;;;;;5043489;28;19950;-74
2021/12/24 09:06:39;;;;;;;;;;;6.70;93.50;;;;;;5038446;28;19924;-73
2021/12/24 09:09:07;;;;;;;;;;;6.70;93.50;;;;;;5031073;28;19948;-75
2021/12/24 09:11:33;;;;;;;;;;;6.70;93.60;;;;;;5034983;28;19925;-73
2021/12/24 09:14:00;;;;;;;;;;;6.70;93.50;;;;;;5030494;28;19928;-74
2021/12/24 09:16:28;;;;;;;;;;;6.70;93.60;;;;;;5031327;28;19929;-74
2021/12/24 09:19:00;;;;;;;;;;;6.70;93.70;;;;;;5035838;28;20273;-75
2021/12/24 09:21:27;;;;;;;;;;;6.70;93.70;;;;;;5030718;28;20404;-75
2021/12/24 09:23:55;;;;;;;;;;;6.70;93.70;;;;;;5041936;28;20014;-74
2021/12/24 09:26:27;;;;;;;;;;;6.70;93.80;;;;;;5036303;28;19929;-73
2021/12/24 09:28:54;;;;;;;;;;;6.70;93.80;;;;;;5041539;28;19924;-73
2021/12/24 09:31:20;;;;;;;;;;;6.70;93.80;;;;;;5043548;28;19932;-76
2021/12/24 09:33:48;;;;;;;;;;;6.70;93.80;;;;;;5045115;28;20406;-76
2021/12/24 09:36:20;;;;;;;;;;;6.70;93.80;;;;;;5043093;28;19924;-76
2021/12/24 09:38:47;;;;;;;;;;;6.70;93.90;;;;;;5033158;28;19998;-77
2021/12/24 09:41:13;;;;;;;;;;;6.70;93.90;;;;;;5039767;28;19994;-70
2021/12/24 09:43:40;;;;;;;;;;;6.70;93.90;;;;;;5042223;28;19925;-70
2021/12/24 09:46:06;;;;;;;;;;;6.70;94.00;;;;;;5042146;28;19924;-70
2021/12/24 09:48:33;;;;;;;;;;;6.70;94.00;;;;;;5041238;28;19932;-70
2021/12/24 09:51:01;;;;;;;;;;;6.70;94.10;;;;;;5048199;28;19928;-70
2021/12/24 09:53:27;;;;;;;;;;;6.60;94.20;;;;;;5038773;28;19928;-70
2021/12/24 09:55:54;;;;;;;;;;;6.70;94.40;;;;;;5043101;28;19928;-71
2021/12/24 09:58:20;;;;;;;;;;;6.70;94.30;;;;;;5047295;28;20315;-70
2021/12/24 10:00:47;;;;;;;;;;;6.60;94.40;;;;;;5048323;28;20348;-70
2021/12/24 10:03:27;;;;;;;;;;;6.60;94.40;;;;;;5040097;28;20411;-70
2021/12/24 10:05:55;;;;;;;;;;;6.60;94.30;;;;;;5046696;28;20534;-71
2021/12/24 10:08:24;;;;;;;;;;;6.70;94.40;;;;;;5044744;28;19925;-71
2021/12/24 10:10:53;;;;;;;;;;;6.70;94.50;;;;;;5048177;28;19928;-71
2021/12/24 10:13:33;;;;;;;;;;;6.60;94.60;;;;;;5044961;28;19924;-71
2021/12/24 10:16:01;;;;;;;;;;;6.60;94.70;;;;;;5043342;28;19928;-70
2021/12/24 10:18:28;;;;;;;;;;;6.70;94.70;;;;;;5035283;28;20373;-71
2021/12/24 10:20:58;;;;;;;;;;;6.60;94.60;;;;;;5045436;28;20450;-71
2021/12/24 10:23:39;;;;;;;;;;;6.60;94.60;;;;;;5042852;28;19929;-71
2021/12/24 10:26:13;;;;;;;;;;;6.70;94.60;;;;;;5045455;28;19925;-70
2021/12/24 10:28:48;;;;;;;;;;;6.60;94.50;;;;;;5043245;28;20732;-70
2021/12/24 10:31:17;;;;;;;;;;;6.60;94.50;;;;;;5046030;28;20380;-71
2021/12/24 10:34:03;;;;;;;;;;;6.60;94.60;;;;;;5042195;28;19924;-75
2021/12/24 10:36:30;;;;;;;;;;;6.60;94.60;;;;;;5041224;28;20343;-75
2021/12/24 10:38:58;;;;;;;;;;;6.60;94.60;;;;;;5043288;28;19924;-75
2021/12/24 10:41:25;;;;;;;;;;;6.60;94.60;;;;;;5043614;28;19982;-76
2021/12/24 10:43:52;;;;;;;;;;;6.60;94.60;;;;;;5043111;28;19999;-75
2021/12/24 10:46:19;;;;;;;;;;;6.60;94.60;;;;;;5043754;28;19951;-75
2021/12/24 10:49:01;;;;;;;;;;;6.60;94.70;;;;;;5042133;28;19920;-75
2021/12/24 10:51:53;;;;;;;;;;;6.60;94.70;;;;;;5041342;28;19960;-75
2021/12/24 10:54:20;;;;;;;;;;;6.60;94.70;;;;;;5043091;28;19924;-75
2021/12/24 10:56:47;;;;;;;;;;;6.60;94.80;;;;;;5044339;28;19982;-76
2021/12/24 10:59:13;;;;;;;;;;;6.60;94.80;;;;;;5046828;28;19970;-76
2021/12/24 11:01:40;;;;;;;;;;;6.60;94.90;;;;;;5037666;28;20006;-74
2021/12/24 11:04:06;;;;;;;;;;;6.60;95.00;;;;;;5039714;28;20711;-75
2021/12/24 11:06:36;;;;;;;;;;;6.60;95.10;;;;;;5045514;28;20339;-76
2021/12/24 11:09:03;;;;;;;;;;;6.60;95.00;;;;;;5039801;28;19980;-75
2021/12/24 11:11:35;;;;;;;;;;;6.60;95.00;;;;;;5037845;28;19924;-76
2021/12/24 11:14:02;;;;;;;;;;;6.60;95.00;;;;;;5042675;28;19951;-75
2021/12/24 11:16:30;;;;;;;;;;;6.60;94.90;;;;;;5043618;28;20424;-75
2021/12/24 11:18:58;;;;;;;;;;;6.60;94.90;;;;;;5040733;28;19939;-75
2021/12/24 11:21:25;;;;;;;;;;;6.60;94.90;;;;;;5033362;28;19931;-75
2021/12/24 11:23:52;;;;;;;;;;;6.60;94.90;;;;;;5044790;28;20016;-75
2021/12/24 11:26:20;;;;;;;;;;;6.60;94.90;;;;;;5040002;28;20442;-76
2021/12/24 11:28:48;;;;;;;;;;;6.60;94.90;;;;;;5042040;28;19928;-76
2021/12/24 11:31:15;;;;;;;;;;;6.60;94.90;;;;;;5041198;28;20247;-76
2021/12/24 11:33:43;;;;;;;;;;;6.60;94.90;;;;;;5038886;28;20243;-76
2021/12/24 11:36:11;;;;;;;;;;;6.60;94.90;;;;;;5043621;28;20016;-75
2021/12/24 11:38:39;;;;;;;;;;;6.60;95.00;;;;;;5036808;28;20427;-76
2021/12/24 11:41:06;;;;;;;;;;;6.60;95.00;;;;;;5043361;28;20286;-76
2021/12/24 11:43:34;;;;;;;;;;;6.60;95.00;;;;;;5041121;28;19932;-75
2021/12/24 11:46:04;;;;;;;;;;;6.60;94.90;;;;;;5041145;28;19931;-74
2021/12/24 11:48:32;;;;;;;;;;;6.60;95.00;;;;;;5046301;28;20393;-74
2021/12/24 11:51:00;;;;;;;;;;;6.60;95.00;;;;;;5046822;28;20316;-77
2021/12/24 11:53:27;;;;;;;;;;;6.60;95.00;;;;;;5044754;28;19924;-74
2021/12/24 11:55:53;;;;;;;;;;;6.60;95.10;;;;;;5040704;28;20563;-74
2021/12/24 11:58:21;;;;;;;;;;;6.60;95.50;;;;;;5035215;28;20568;-75
2021/12/24 12:00:49;;;;;;;;;;;6.60;95.30;;;;;;5044576;28;19924;-75
2021/12/24 12:03:32;;;;;;;;;;;6.60;95.30;;;;;;5051855;28;19924;-74
2021/12/24 12:05:59;;;;;;;;;;;6.60;95.30;;;;;;5043757;28;19932;-76
2021/12/24 12:08:43;;;;;;;;;;;6.60;95.30;;;;;;5040562;28;20337;-76
2021/12/24 12:11:18;;;;;;;;;;;6.60;95.30;;;;;;5037379;28;19941;-75
2021/12/24 12:13:55;;;;;;;;;;;6.60;95.30;;;;;;5043611;28;19924;-74
2021/12/24 12:16:23;;;;;;;;;;;6.60;95.30;;;;;;5041739;28;20381;-73
2021/12/24 12:19:03;;;;;;;;;;;6.60;95.40;;;;;;5040850;28;19983;-74
2021/12/24 12:21:40;;;;;;;;;;;6.60;95.30;;;;;;5042199;28;19928;-74
2021/12/24 12:27:01;;;;;;;;;;;6.60;95.40;;;;;;5037231;28;19947;-74
2021/12/24 12:29:29;;;;;;;;;;;6.60;95.40;;;;;;5041505;28;19924;-75
2021/12/24 12:31:57;;;;;;;;;;;6.60;95.40;;;;;;5039653;28;19971;-74
2021/12/24 12:34:41;;;;;;;;;;;6.60;95.30;;;;;;5041957;28;19927;-74
2021/12/24 12:37:17;;;;;;;;;;;6.60;95.40;;;;;;5034530;28;20384;-75
2021/12/24 12:39:44;;;;;;;;;;;6.60;95.40;;;;;;5038991;28;20391;-75
2021/12/24 12:42:13;;;;;;;;;;;6.70;95.40;;;;;;5037747;28;19933;-74
2021/12/24 12:44:43;;;;;;;;;;;6.60;95.40;;;;;;5041442;28;20519;-74
2021/12/24 12:47:10;;;;;;;;;;;6.60;95.30;;;;;;5039631;28;19931;-75
2021/12/24 12:49:37;;;;;;;;;;;6.70;95.70;;;;;;5039239;28;20422;-75
2021/12/24 12:52:04;;;;;;;;;;;6.70;95.40;;;;;;5037108;28;19924;-75
2021/12/24 12:54:34;;;;;;;;;;;6.70;95.50;;;;;;5032075;28;19932;-75
2021/12/24 12:57:11;;;;;;;;;;;6.70;95.60;;;;;;5042535;28;19932;-73
2021/12/24 12:59:38;;;;;;;;;;;6.70;95.70;;;;;;5041651;28;19921;-77
2021/12/24 13:02:04;;;;;;;;;;;6.70;95.70;;;;;;5036177;28;19933;-76
2021/12/24 13:04:31;;;;;;;;;;;6.70;95.70;;;;;;5041608;28;20031;-76
2021/12/24 13:06:58;;;;;;;;;;;6.70;95.80;;;;;;5040883;28;20027;-76
2021/12/24 13:09:32;;;;;;;;;;;6.70;95.80;;;;;;5037952;28;19968;-75
2021/12/24 13:12:00;;;;;;;;;;;6.70;95.80;;;;;;5039118;28;20477;-74
2021/12/24 13:14:29;;;;;;;;;;;6.70;95.80;;;;;;5039514;28;19929;-75
2021/12/24 13:17:16;;;;;;;;;;;6.80;95.80;;;;;;5040356;28;19931;-76
2021/12/24 13:20:00;;;;;;;;;;;6.80;95.80;;;;;;5037916;28;19925;-76
2021/12/24 13:22:28;;;;;;;;;;;6.70;95.70;;;;;;5038931;28;19978;-75
2021/12/24 13:24:56;;;;;;;;;;;6.80;95.80;;;;;;5040711;28;20006;-75
2021/12/24 13:27:25;;;;;;;;;;;6.80;96.00;;;;;;5036613;28;19932;-75
2021/12/24 13:30:05;;;;;;;;;;;6.80;95.70;;;;;;5040399;28;19935;-76
2021/12/24 13:32:31;;;;;;;;;;;6.80;95.70;;;;;;5038059;28;19928;-75
2021/12/24 13:34:58;;;;;;;;;;;6.80;95.80;;;;;;5041720;28;20670;-75
2021/12/24 13:37:30;;;;;;;;;;;6.80;95.80;;;;;;5041546;28;19929;-76
2021/12/24 13:39:57;;;;;;;;;;;6.80;95.70;;;;;;5038885;28;20338;-76
2021/12/24 13:42:25;;;;;;;;;;;6.80;95.70;;;;;;5036694;28;20010;-75
2021/12/24 13:44:58;;;;;;;;;;;6.80;95.70;;;;;;5038123;28;19925;-76
2021/12/24 13:47:29;;;;;;;;;;;6.80;95.60;;;;;;5036983;28;19927;-77
2021/12/24 13:50:11;;;;;;;;;;;6.80;95.60;;;;;;5038905;28;19924;-76
2021/12/24 13:55:23;;;;;;;;;;;6.80;95.60;;;;;;5039692;28;19955;-75
2021/12/24 13:57:56;;;;;;;;;;;6.80;95.50;;;;;;5036790;28;19925;-70
2021/12/24 14:00:23;;;;;;;;;;;6.80;95.50;;;;;;5035550;28;19975;-74
2021/12/24 14:02:53;;;;;;;;;;;6.80;95.60;;;;;;5036263;28;19941;-76
2021/12/24 14:05:20;;;;;;;;;;;6.80;95.60;;;;;;5039056;28;19924;-76
2021/12/24 14:07:47;;;;;;;;;;;6.80;95.60;;;;;;5032966;28;19987;-77
2021/12/24 14:10:25;;;;;;;;;;;6.90;95.60;;;;;;5036390;28;20299;-74
2021/12/24 14:12:54;;;;;;;;;;;6.80;95.60;;;;;;5037273;28;19929;-78
2021/12/24 14:15:26;;;;;;;;;;;6.80;95.60;;;;;;5038668;28;20042;-74
2021/12/24 14:18:17;;;;;;;;;;;6.80;95.50;;;;;;5039224;28;19929;-74
2021/12/24 14:23:24;;;;;;;;;;;6.90;95.50;;;;;;5036023;28;19917;-74
2021/12/24 14:25:54;;;;;;;;;;;6.90;95.50;;;;;;5044828;28;19928;-74
2021/12/24 14:28:22;;;;;;;;;;;6.80;95.50;;;;;;5037462;28;19924;-74
2021/12/24 14:30:57;;;;;;;;;;;6.90;95.50;;;;;;5035325;28;19924;-74
2021/12/24 14:33:24;;;;;;;;;;;6.90;95.40;;;;;;5034119;28;19931;-75
2021/12/24 14:35:52;;;;;;;;;;;6.90;95.50;;;;;;5040224;28;19934;-77
2021/12/24 14:38:19;;;;;;;;;;;6.90;95.50;;;;;;5036667;28;19921;-77
2021/12/24 14:40:54;;;;;;;;;;;6.90;95.50;;;;;;5039916;28;19936;-77
2021/12/24 14:43:21;;;;;;;;;;;6.90;95.40;;;;;;5039704;28;19986;-77
2021/12/24 14:45:48;;;;;;;;;;;6.90;95.40;;;;;;5033828;28;19928;-76
2021/12/24 14:48:19;;;;;;;;;;;6.90;95.40;;;;;;5041297;28;19925;-77
2021/12/24 14:50:46;;;;;;;;;;;6.90;95.40;;;;;;5044743;28;19936;-77
2021/12/24 14:53:15;;;;;;;;;;;6.90;95.40;;;;;;5040758;28;20315;-76
2021/12/24 14:55:43;;;;;;;;;;;6.90;95.40;;;;;;5045883;28;20384;-78
2021/12/24 14:58:10;;;;;;;;;;;6.90;95.30;;;;;;5044201;28;19925;-78
2021/12/24 15:00:37;;;;;;;;;;;6.90;95.30;;;;;;5041964;28;19925;-77
2021/12/24 15:03:06;;;;;;;;;;;6.90;95.30;;;;;;5042697;28;19924;-77
2021/12/24 15:05:35;;;;;;;;;;;6.90;95.30;;;;;;5040590;28;19944;-77
2021/12/24 15:08:10;;;;;;;;;;;6.90;95.30;;;;;;5037425;28;19933;-78
2021/12/24 15:10:37;;;;;;;;;;;6.90;95.30;;;;;;5045550;28;19924;-77
2021/12/24 15:13:13;;;;;;;;;;;6.90;95.30;;;;;;5043454;28;20396;-78
2021/12/24 15:15:40;;;;;;;;;;;6.90;95.30;;;;;;5041080;28;20430;-77
2021/12/24 15:18:06;;;;;;;;;;;7.00;95.40;;;;;;5038942;28;20491;-78
2021/12/24 15:20:34;;;;;;;;;;;6.90;95.30;;;;;;5045288;28;19928;-79
2021/12/24 15:23:01;;;;;;;;;;;6.90;95.30;;;;;;5038688;28;20043;-74
2021/12/24 15:25:28;;;;;;;;;;;6.90;95.30;;;;;;5045268;28;19979;-75
2021/12/24 15:27:56;;;;;;;;;;;6.90;95.30;;;;;;5041327;28;20666;-75
2021/12/24 15:30:22;;;;;;;;;;;7.00;95.40;;;;;;5039591;28;19925;-75
2021/12/24 15:32:49;;;;;;;;;;;6.90;95.40;;;;;;5041414;28;19998;-74
2021/12/24 15:35:15;;;;;;;;;;;6.90;95.40;;;;;;5038195;28;19925;-75
2021/12/24 15:37:42;;;;;;;;;;;6.90;95.40;;;;;;5039349;28;19925;-75
2021/12/24 15:40:11;;;;;;;;;;;6.90;95.50;;;;;;5042028;28;19924;-76
2021/12/24 15:42:37;;;;;;;;;;;6.90;95.50;;;;;;5043157;28;20002;-75
2021/12/24 15:45:04;;;;;;;;;;;6.90;95.50;;;;;;5041606;28;20408;-75
2021/12/24 15:47:31;;;;;;;;;;;6.90;95.50;;;;;;5038970;28;19928;-76
2021/12/24 15:50:00;;;;;;;;;;;7.00;95.50;;;;;;5042352;28;19932;-75
2021/12/24 15:52:27;;;;;;;;;;;7.00;95.50;;;;;;5044383;28;19924;-75
2021/12/24 15:54:54;;;;;;;;;;;7.00;95.50;;;;;;5040933;28;19929;-78
2021/12/24 15:57:21;;;;;;;;;;;7.00;95.50;;;;;;5043333;28;19925;-77
2021/12/24 15:59:48;;;;;;;;;;;6.90;95.40;;;;;;5039178;28;20395;-78
2021/12/24 16:02:15;;;;;;;;;;;7.00;95.40;;;;;;5037392;28;19978;-78
2021/12/24 16:04:41;;;;;;;;;;;7.00;95.40;;;;;;5046424;28;19925;-77